createdAt,value
2019-01-14T00:00:48.231Z,7.21
2019-01-14T00:01:48.259Z,7.18
2019-01-14T00:02:48.296Z,7.19
2019-01-14T00:03:48.319Z,7.16
2019-01-14T00:04:55.356Z,7.12
2019-01-14T00:05:48.382Z,7.09
2019-01-14T00:06:48.408Z,7.05
2019-01-14T00:07:48.438Z,7.08
2019-01-14T00:08:48.467Z,7.08
2019-01-14T00:09:48.496Z,7.16
2019-01-14T00:10:48.526Z,7.18
2019-01-14T00:11:48.558Z,7.05
2019-01-14T00:12:48.588Z,7.05
2019-01-14T00:13:48.618Z,7.07
2019-01-14T00:14:48.645Z,7.07
2019-01-14T00:15:48.680Z,7.09
2019-01-14T00:16:48.706Z,6.96
2019-01-14T00:17:48.743Z,6.93
2019-01-14T00:18:48.764Z,6.91
2019-01-14T00:19:48.795Z,6.86
2019-01-14T00:20:48.826Z,6.87
2019-01-14T00:21:48.855Z,6.89
2019-01-14T00:22:48.884Z,6.90
2019-01-14T00:23:48.914Z,6.91
2019-01-14T00:24:48.946Z,6.83
2019-01-14T00:25:48.975Z,6.89
2019-01-14T00:26:49.004Z,6.87
2019-01-14T00:27:49.033Z,6.89
2019-01-14T00:28:49.062Z,6.87
2019-01-14T00:29:49.091Z,6.86
2019-01-14T00:30:49.123Z,6.87
2019-01-14T00:31:49.152Z,6.78
2019-01-14T00:32:49.182Z,6.75
2019-01-14T00:33:49.214Z,6.73
2019-01-14T00:34:49.241Z,6.75
2019-01-14T00:35:49.270Z,6.75
2019-01-14T00:36:49.299Z,6.72
2019-01-14T00:37:49.328Z,6.72
2019-01-14T00:38:49.359Z,6.75
2019-01-14T00:39:49.389Z,6.61
2019-01-14T00:40:49.419Z,6.64
2019-01-14T00:41:49.448Z,6.71
2019-01-14T00:42:49.477Z,6.64
2019-01-14T00:43:49.506Z,6.69
2019-01-14T00:44:49.537Z,6.76
2019-01-14T00:45:49.564Z,6.71
2019-01-14T00:46:49.607Z,6.73
2019-01-14T00:47:49.625Z,6.64
2019-01-14T00:48:49.654Z,6.61
2019-01-14T00:49:49.683Z,6.69
2019-01-14T00:50:49.713Z,6.61
2019-01-14T00:51:49.744Z,6.78
2019-01-14T00:52:49.772Z,6.69
2019-01-14T00:53:49.804Z,6.72
2019-01-14T00:54:49.831Z,6.72
2019-01-14T00:55:49.863Z,6.65
2019-01-14T00:56:49.891Z,6.64
2019-01-14T00:57:49.920Z,6.69
2019-01-14T00:58:49.951Z,6.71
2019-01-14T00:59:49.980Z,6.60
2019-01-14T01:00:50.011Z,6.63
2019-01-14T01:01:50.039Z,6.63
2019-01-14T01:02:50.068Z,6.58
2019-01-14T01:03:50.099Z,6.54
2019-01-14T01:04:50.129Z,6.57
2019-01-14T01:05:50.157Z,6.57
2019-01-14T01:06:50.188Z,6.54
2019-01-14T01:07:50.215Z,6.57
2019-01-14T01:08:50.245Z,6.54
2019-01-14T01:09:50.277Z,6.60
2019-01-14T01:10:50.304Z,6.57
2019-01-14T01:11:50.337Z,6.57
2019-01-14T01:12:50.364Z,6.55
2019-01-14T01:13:50.392Z,6.48
2019-01-14T01:14:50.423Z,6.57
2019-01-14T01:15:50.451Z,6.53
2019-01-14T01:16:50.482Z,6.57
2019-01-14T01:17:50.512Z,6.55
2019-01-14T01:18:50.544Z,6.58
2019-01-14T01:19:50.569Z,6.55
2019-01-14T01:20:50.600Z,6.57
2019-01-14T01:21:50.629Z,6.60
2019-01-14T01:22:50.657Z,6.57
2019-01-14T01:23:50.687Z,6.61
2019-01-14T01:24:50.717Z,6.57
2019-01-14T01:25:50.746Z,6.53
2019-01-14T01:26:50.775Z,6.53
2019-01-14T01:27:50.811Z,6.58
2019-01-14T01:28:50.835Z,6.54
2019-01-14T01:29:50.864Z,6.55
2019-01-14T01:30:50.893Z,6.60
2019-01-14T01:31:50.922Z,6.51
2019-01-14T01:32:50.954Z,6.50
2019-01-14T01:33:50.982Z,6.48
2019-01-14T01:34:51.011Z,6.48
2019-01-14T01:35:51.042Z,6.48
2019-01-14T01:36:51.079Z,6.48
2019-01-14T01:37:51.098Z,6.50
2019-01-14T01:38:51.127Z,6.42
2019-01-14T01:39:51.159Z,6.36
2019-01-14T01:40:51.194Z,6.46
2019-01-14T01:41:51.218Z,6.43
2019-01-14T01:42:51.247Z,6.40
2019-01-14T01:43:51.276Z,6.32
2019-01-14T01:44:51.304Z,6.24
2019-01-14T01:45:51.335Z,6.36
2019-01-14T01:46:51.364Z,6.27
2019-01-14T01:47:51.395Z,6.33
2019-01-14T01:48:51.426Z,6.28
2019-01-14T01:49:51.454Z,6.33
2019-01-14T01:50:51.483Z,6.27
2019-01-14T01:51:51.511Z,6.24
2019-01-14T01:52:51.542Z,6.24
2019-01-14T01:53:51.569Z,6.24
2019-01-14T01:54:51.598Z,6.27
2019-01-14T01:55:51.629Z,6.25
2019-01-14T01:56:51.657Z,6.24
2019-01-14T01:57:51.688Z,6.21
2019-01-14T01:58:51.718Z,6.25
2019-01-14T01:59:51.746Z,6.27
2019-01-14T02:00:51.775Z,6.20
2019-01-14T02:01:51.804Z,6.20
2019-01-14T02:02:51.834Z,6.20
2019-01-14T02:03:51.866Z,6.16
2019-01-14T02:04:51.894Z,6.20
2019-01-14T02:05:51.922Z,6.05
2019-01-14T02:06:51.953Z,6.13
2019-01-14T02:07:51.984Z,6.24
2019-01-14T02:08:52.012Z,6.08
2019-01-14T02:09:52.040Z,6.05
2019-01-14T02:10:52.070Z,6.20
2019-01-14T02:11:52.098Z,6.13
2019-01-14T02:12:52.130Z,6.25
2019-01-14T02:13:52.157Z,6.19
2019-01-14T02:14:52.186Z,6.11
2019-01-14T02:15:52.216Z,6.06
2019-01-14T02:16:52.246Z,6.02
2019-01-14T02:17:52.277Z,6.02
2019-01-14T02:18:52.302Z,6.11
2019-01-14T02:19:52.332Z,6.06
2019-01-14T02:20:52.361Z,6.08
2019-01-14T02:21:52.389Z,6.10
2019-01-14T02:22:52.420Z,6.08
2019-01-14T02:23:52.449Z,6.11
2019-01-14T02:24:52.484Z,6.08
2019-01-14T02:25:52.514Z,6.10
2019-01-14T02:26:52.536Z,6.10
2019-01-14T02:27:52.566Z,6.14
2019-01-14T02:28:52.595Z,6.13
2019-01-14T02:29:52.625Z,6.16
2019-01-14T02:30:52.654Z,6.06
2019-01-14T02:31:52.682Z,6.11
2019-01-14T02:32:52.713Z,6.11
2019-01-14T02:33:52.742Z,6.13
2019-01-14T02:34:52.772Z,6.11
2019-01-14T02:35:52.801Z,6.14
2019-01-14T02:36:52.830Z,6.08
2019-01-14T02:37:52.858Z,6.08
2019-01-14T02:38:52.886Z,6.19
2019-01-14T02:39:52.916Z,6.16
2019-01-14T02:40:52.947Z,6.24
2019-01-14T02:41:52.975Z,6.03
2019-01-14T02:42:53.004Z,6.16
2019-01-14T02:43:53.036Z,6.03
2019-01-14T02:44:53.063Z,6.17
2019-01-14T02:45:53.092Z,6.17
2019-01-14T02:46:53.128Z,6.06
2019-01-14T02:47:53.150Z,6.05
2019-01-14T02:48:53.178Z,6.06
2019-01-14T02:49:53.213Z,6.13
2019-01-14T02:50:53.237Z,6.08
2019-01-14T02:51:53.266Z,6.08
2019-01-14T02:52:53.296Z,6.16
2019-01-14T02:53:53.324Z,6.08
2019-01-14T02:54:53.354Z,6.02
2019-01-14T02:55:53.383Z,6.06
2019-01-14T02:56:53.412Z,6.10
2019-01-14T02:57:53.440Z,6.05
2019-01-14T02:58:53.470Z,6.02
2019-01-14T02:59:53.500Z,6.05
2019-01-14T03:00:53.543Z,6.08
2019-01-14T03:01:53.559Z,6.11
2019-01-14T03:02:53.589Z,6.05
2019-01-14T03:03:53.616Z,6.02
2019-01-14T03:04:53.645Z,6.01
2019-01-14T03:05:53.674Z,6.03
2019-01-14T03:06:57.994Z,6.05
2019-01-14T03:07:53.732Z,6.11
2019-01-14T03:08:53.763Z,6.08
2019-01-14T03:09:53.791Z,5.98
2019-01-14T03:10:53.821Z,6.06
2019-01-14T03:11:53.849Z,6.10
2019-01-14T03:12:53.883Z,6.10
2019-01-14T03:13:53.914Z,6.14
2019-01-14T03:14:53.939Z,6.05
2019-01-14T03:15:53.966Z,6.06
2019-01-14T03:16:53.995Z,6.11
2019-01-14T03:17:54.028Z,6.10
2019-01-14T03:18:54.056Z,6.08
2019-01-14T03:19:54.086Z,6.05
2019-01-14T03:20:54.113Z,6.13
2019-01-14T03:21:54.150Z,6.08
2019-01-14T03:22:54.170Z,6.08
2019-01-14T03:23:54.199Z,6.05
2019-01-14T03:24:54.231Z,5.99
2019-01-14T03:25:58.345Z,5.96
2019-01-14T03:26:54.294Z,5.98
2019-01-14T03:27:54.317Z,5.96
2019-01-14T03:28:54.346Z,5.98
2019-01-14T03:29:54.377Z,6.01
2019-01-14T03:30:54.405Z,6.03
2019-01-14T03:31:54.435Z,6.01
2019-01-14T03:32:54.481Z,6.02
2019-01-14T03:33:54.496Z,5.99
2019-01-14T03:34:54.520Z,5.90
2019-01-14T03:35:54.554Z,6.01
2019-01-14T03:36:54.587Z,5.88
2019-01-14T03:37:54.609Z,5.93
2019-01-14T03:38:54.639Z,5.90
2019-01-14T03:39:54.667Z,5.93
2019-01-14T03:40:54.697Z,5.95
2019-01-14T03:41:54.727Z,5.95
2019-01-14T03:42:54.756Z,5.92
2019-01-14T03:43:54.786Z,5.93
2019-01-14T03:44:54.823Z,5.93
2019-01-14T03:45:54.843Z,5.98
2019-01-14T03:46:54.872Z,5.98
2019-01-14T03:47:54.901Z,5.92
2019-01-14T03:48:54.931Z,5.90
2019-01-14T03:49:54.958Z,5.93
2019-01-14T03:50:54.989Z,5.95
2019-01-14T03:51:55.017Z,5.95
2019-01-14T03:52:55.046Z,5.92
2019-01-14T03:53:55.074Z,5.90
2019-01-14T03:54:55.107Z,5.92
2019-01-14T03:55:55.136Z,5.84
2019-01-14T03:56:55.163Z,5.87
2019-01-14T03:57:55.192Z,5.90
2019-01-14T03:58:55.220Z,5.88
2019-01-14T03:59:55.250Z,5.90
2019-01-14T04:00:55.285Z,5.84
2019-01-14T04:01:55.309Z,5.92
2019-01-14T04:02:55.339Z,5.81
2019-01-14T04:03:55.367Z,5.87
2019-01-14T04:04:55.397Z,5.84
2019-01-14T04:05:55.426Z,5.90
2019-01-14T04:06:55.454Z,5.88
2019-01-14T04:07:55.485Z,5.85
2019-01-14T04:08:55.514Z,5.83
2019-01-14T04:09:55.541Z,5.69
2019-01-14T04:10:55.573Z,5.74
2019-01-14T04:11:55.601Z,5.70
2019-01-14T04:12:55.630Z,5.74
2019-01-14T04:13:55.656Z,5.67
2019-01-14T04:14:55.719Z,5.69
2019-01-14T04:15:55.717Z,5.67
2019-01-14T04:16:55.749Z,5.67
2019-01-14T04:17:55.777Z,5.67
2019-01-14T04:18:55.804Z,5.75
2019-01-14T04:19:55.836Z,5.65
2019-01-14T04:20:55.861Z,5.67
2019-01-14T04:21:55.894Z,5.63
2019-01-14T04:22:55.918Z,5.59
2019-01-14T04:23:55.949Z,5.58
2019-01-14T04:24:55.978Z,5.60
2019-01-14T04:25:56.007Z,5.65
2019-01-14T04:26:56.035Z,5.63
2019-01-14T04:27:56.063Z,5.59
2019-01-14T04:28:56.093Z,5.52
2019-01-14T04:29:56.135Z,5.62
2019-01-14T04:30:56.153Z,5.58
2019-01-14T04:31:56.181Z,5.55
2019-01-14T04:32:56.213Z,5.47
2019-01-14T04:33:56.238Z,5.40
2019-01-14T04:34:56.272Z,5.45
2019-01-14T04:35:56.300Z,5.40
2019-01-14T04:36:56.327Z,5.38
2019-01-14T04:37:56.354Z,5.26
2019-01-14T04:38:56.384Z,5.23
2019-01-14T04:39:56.411Z,5.22
2019-01-14T04:40:56.441Z,5.24
2019-01-14T04:41:56.468Z,5.24
2019-01-14T04:42:56.503Z,5.20
2019-01-14T04:43:56.528Z,5.17
2019-01-14T04:44:56.558Z,5.05
2019-01-14T04:45:56.587Z,5.05
2019-01-14T04:46:56.613Z,5.11
2019-01-14T04:47:56.643Z,4.99
2019-01-14T04:48:56.671Z,5.04
2019-01-14T04:49:56.699Z,4.97
2019-01-14T04:50:56.729Z,4.96
2019-01-14T04:51:56.760Z,4.99
2019-01-14T04:52:56.788Z,4.99
2019-01-14T04:53:56.815Z,4.93
2019-01-14T04:54:56.842Z,4.91
2019-01-14T04:55:56.872Z,4.90
2019-01-14T04:56:56.901Z,4.86
2019-01-14T04:57:56.931Z,4.83
2019-01-14T04:58:56.959Z,4.86
2019-01-14T04:59:56.986Z,4.77
2019-01-14T05:00:57.015Z,4.80
2019-01-14T05:01:57.044Z,4.80
2019-01-14T05:02:57.073Z,4.72
2019-01-14T05:03:57.100Z,4.71
2019-01-14T05:04:57.132Z,4.69
2019-01-14T05:05:57.158Z,4.68
2019-01-14T05:06:57.187Z,4.57
2019-01-14T05:07:57.217Z,4.59
2019-01-14T05:08:57.246Z,4.59
2019-01-14T05:09:57.273Z,4.61
2019-01-14T05:10:57.305Z,4.61
2019-01-14T05:11:57.331Z,4.62
2019-01-14T05:12:57.361Z,4.56
2019-01-14T05:13:57.387Z,4.61
2019-01-14T05:14:57.415Z,4.62
2019-01-14T05:15:57.445Z,4.61
2019-01-14T05:16:57.473Z,4.67
2019-01-14T05:17:57.501Z,4.67
2019-01-14T05:18:57.531Z,4.64
2019-01-14T05:19:57.558Z,4.69
2019-01-14T05:20:57.682Z,4.75
2019-01-14T05:21:57.615Z,4.74
2019-01-14T05:22:57.648Z,4.74
2019-01-14T05:23:57.674Z,4.72
2019-01-14T05:24:57.702Z,4.71
2019-01-14T05:25:57.730Z,4.75
2019-01-14T05:26:57.764Z,4.74
2019-01-14T05:27:57.786Z,4.74
2019-01-14T05:28:57.816Z,4.80
2019-01-14T05:29:57.848Z,4.77
2019-01-14T05:30:57.871Z,4.69
2019-01-14T05:31:57.901Z,4.75
2019-01-14T05:32:57.929Z,4.68
2019-01-14T05:33:57.962Z,4.72
2019-01-14T05:34:57.992Z,4.65
2019-01-14T05:35:58.017Z,4.68
2019-01-14T05:36:58.045Z,4.74
2019-01-14T05:37:58.073Z,4.64
2019-01-14T05:38:58.101Z,4.69
2019-01-14T05:39:58.129Z,4.77
2019-01-14T05:40:58.158Z,4.67
2019-01-14T05:41:58.187Z,4.64
2019-01-14T05:42:58.214Z,4.68
2019-01-14T05:43:58.247Z,4.71
2019-01-14T05:44:58.273Z,4.69
2019-01-14T05:45:58.300Z,4.74
2019-01-14T05:46:58.329Z,4.69
2019-01-14T05:47:58.357Z,4.69
2019-01-14T05:48:58.386Z,4.74
2019-01-14T05:49:58.415Z,4.74
2019-01-14T05:50:58.443Z,4.84
2019-01-14T05:51:58.475Z,4.84
2019-01-14T05:52:58.502Z,4.74
2019-01-14T05:53:58.527Z,4.75
2019-01-14T05:54:58.557Z,4.77
2019-01-14T05:55:58.585Z,4.75
2019-01-14T05:56:58.615Z,4.77
2019-01-14T05:57:58.642Z,4.87
2019-01-14T05:58:58.674Z,4.84
2019-01-14T05:59:58.698Z,4.84
2019-01-14T06:00:58.727Z,4.87
2019-01-14T06:01:58.758Z,4.83
2019-01-14T06:02:58.784Z,4.86
2019-01-14T06:03:58.813Z,4.84
2019-01-14T06:04:58.841Z,4.74
2019-01-14T06:05:58.869Z,4.86
2019-01-14T06:06:58.898Z,4.80
2019-01-14T06:07:58.927Z,4.83
2019-01-14T06:08:58.956Z,4.88
2019-01-14T06:09:58.983Z,4.90
2019-01-14T06:10:59.029Z,4.84
2019-01-14T06:11:59.042Z,4.84
2019-01-14T06:12:59.076Z,4.84
2019-01-14T06:13:59.097Z,4.86
2019-01-14T06:14:59.126Z,4.72
2019-01-14T06:15:59.155Z,4.69
2019-01-14T06:16:59.185Z,4.72
2019-01-14T06:17:59.210Z,4.69
2019-01-14T06:18:59.244Z,4.75
2019-01-14T06:19:59.273Z,4.68
2019-01-14T06:20:59.299Z,4.64
2019-01-14T06:21:59.326Z,4.67
2019-01-14T06:22:59.354Z,4.69
2019-01-14T06:23:59.383Z,4.65
2019-01-14T06:24:59.411Z,4.74
2019-01-14T06:25:59.439Z,4.62
2019-01-14T06:26:59.468Z,4.74
2019-01-14T06:27:59.497Z,4.75
2019-01-14T06:28:59.525Z,4.74
2019-01-14T06:29:59.553Z,4.77
2019-01-14T06:30:59.586Z,4.68
2019-01-14T06:31:59.609Z,4.68
2019-01-14T06:32:59.647Z,4.72
2019-01-14T06:33:59.666Z,4.67
2019-01-14T06:34:59.697Z,4.71
2019-01-14T06:35:59.728Z,4.65
2019-01-14T06:36:59.754Z,4.77
2019-01-14T06:37:59.784Z,4.74
2019-01-14T06:38:59.810Z,4.72
2019-01-14T06:39:59.840Z,4.72
2019-01-14T06:40:59.901Z,4.69
2019-01-14T06:41:59.895Z,4.75
2019-01-14T06:42:59.924Z,4.86
2019-01-14T06:43:59.951Z,4.75
2019-01-14T06:44:59.980Z,4.84
2019-01-14T06:46:00.008Z,4.79
2019-01-14T06:47:00.037Z,4.88
2019-01-14T06:48:00.065Z,4.87
2019-01-14T06:49:00.095Z,4.84
2019-01-14T06:50:00.123Z,4.90
2019-01-14T06:51:00.151Z,4.84
2019-01-14T06:52:00.186Z,4.83
2019-01-14T06:53:00.209Z,4.84
2019-01-14T06:54:00.237Z,4.74
2019-01-14T06:55:00.266Z,4.68
2019-01-14T06:56:00.293Z,4.67
2019-01-14T06:57:00.323Z,4.62
2019-01-14T06:58:00.351Z,4.65
2019-01-14T06:59:00.377Z,4.56
2019-01-14T07:00:00.406Z,4.59
2019-01-14T07:01:00.435Z,4.54
2019-01-14T07:02:00.463Z,4.54
2019-01-14T07:03:00.491Z,4.50
2019-01-14T07:04:00.525Z,4.43
2019-01-14T07:05:00.629Z,4.44
2019-01-14T07:06:00.582Z,4.51
2019-01-14T07:07:00.608Z,4.43
2019-01-14T07:08:00.640Z,4.47
2019-01-14T07:09:00.664Z,4.46
2019-01-14T07:10:00.693Z,4.44
2019-01-14T07:11:00.725Z,4.31
2019-01-14T07:12:00.751Z,4.29
2019-01-14T07:13:00.794Z,4.32
2019-01-14T07:14:00.805Z,4.13
2019-01-14T07:15:00.833Z,4.16
2019-01-14T07:16:00.861Z,4.10
2019-01-14T07:17:00.891Z,4.08
2019-01-14T07:18:00.919Z,4.08
2019-01-14T07:19:00.946Z,3.98
2019-01-14T07:20:00.975Z,4.00
2019-01-14T07:21:01.003Z,4.07
2019-01-14T07:22:01.034Z,4.04
2019-01-14T07:23:01.060Z,3.95
2019-01-14T07:24:01.088Z,3.95
2019-01-14T07:25:01.118Z,4.08
2019-01-14T07:26:01.143Z,4.00
2019-01-14T07:27:01.172Z,3.99
2019-01-14T07:28:01.202Z,4.00
2019-01-14T07:29:01.230Z,4.00
2019-01-14T07:30:01.258Z,4.00
2019-01-14T07:31:01.284Z,4.07
2019-01-14T07:32:01.314Z,4.07
2019-01-14T07:33:01.342Z,4.06
2019-01-14T07:34:01.371Z,4.06
2019-01-14T07:35:02.320Z,3.99
2019-01-14T07:36:01.443Z,4.00
2019-01-14T07:37:01.455Z,4.02
2019-01-14T07:38:06.576Z,4.07
2019-01-14T07:39:01.513Z,4.07
2019-01-14T07:40:01.539Z,4.16
2019-01-14T07:41:01.568Z,4.20
2019-01-14T07:42:01.594Z,4.17
2019-01-14T07:43:01.627Z,4.11
2019-01-14T07:44:01.657Z,4.25
2019-01-14T07:45:01.681Z,4.26
2019-01-14T07:46:01.711Z,4.29
2019-01-14T07:47:01.737Z,4.29
2019-01-14T07:48:01.771Z,4.25
2019-01-14T07:49:01.795Z,4.31
2019-01-14T07:50:01.890Z,4.20
2019-01-14T07:51:01.853Z,4.11
2019-01-14T07:52:01.880Z,4.13
2019-01-14T07:53:01.906Z,4.13
2019-01-14T07:54:01.939Z,4.13
2019-01-14T07:55:01.966Z,4.20
2019-01-14T07:56:01.992Z,4.17
2019-01-14T07:57:02.020Z,4.10
2019-01-14T07:58:02.050Z,4.18
2019-01-14T07:59:02.076Z,4.13
2019-01-14T08:00:02.103Z,4.26
2019-01-14T08:01:02.133Z,4.20
2019-01-14T08:02:02.162Z,4.20
2019-01-14T08:03:02.190Z,4.21
2019-01-14T08:04:02.218Z,4.34
2019-01-14T08:05:02.246Z,4.29
2019-01-14T08:06:02.272Z,4.29
2019-01-14T08:07:02.356Z,4.29
2019-01-14T08:08:02.329Z,4.31
2019-01-14T08:09:02.359Z,4.29
2019-01-14T08:10:02.385Z,4.29
2019-01-14T08:11:02.412Z,4.34
2019-01-14T08:12:02.442Z,4.31
2019-01-14T08:13:02.474Z,4.29
2019-01-14T08:14:02.497Z,4.44
2019-01-14T08:15:02.537Z,4.42
2019-01-14T08:16:02.553Z,4.44
2019-01-14T08:17:02.584Z,4.43
2019-01-14T08:18:02.615Z,4.43
2019-01-14T08:19:02.640Z,4.47
2019-01-14T08:20:02.668Z,4.47
2019-01-14T08:21:02.701Z,4.39
2019-01-14T08:22:02.724Z,4.46
2019-01-14T08:23:02.753Z,4.42
2019-01-14T08:24:02.781Z,4.59
2019-01-14T08:25:02.808Z,4.56
2019-01-14T08:26:02.841Z,4.57
2019-01-14T08:27:02.866Z,4.59
2019-01-14T08:28:02.893Z,4.59
2019-01-14T08:29:02.921Z,4.59
2019-01-14T08:30:02.949Z,4.62
2019-01-14T08:31:02.978Z,4.64
2019-01-14T08:32:03.006Z,4.56
2019-01-14T08:33:03.035Z,4.49
2019-01-14T08:34:03.062Z,4.51
2019-01-14T08:35:03.091Z,4.47
2019-01-14T08:36:03.124Z,4.49
2019-01-14T08:37:03.149Z,4.46
2019-01-14T08:38:03.177Z,4.47
2019-01-14T08:39:03.205Z,4.44
2019-01-14T08:40:03.233Z,4.49
2019-01-14T08:41:03.262Z,4.43
2019-01-14T08:42:03.293Z,4.39
2019-01-14T08:43:03.317Z,4.46
2019-01-14T08:44:03.345Z,4.53
2019-01-14T08:45:03.374Z,4.42
2019-01-14T08:46:03.401Z,4.44
2019-01-14T08:47:03.430Z,4.57
2019-01-14T08:48:03.462Z,4.57
2019-01-14T08:49:03.486Z,4.62
2019-01-14T08:50:03.514Z,4.59
2019-01-14T08:51:03.543Z,4.61
2019-01-14T08:52:03.570Z,4.59
2019-01-14T08:53:03.601Z,4.50
2019-01-14T08:54:03.629Z,4.50
2019-01-14T08:55:03.663Z,4.56
2019-01-14T08:56:03.688Z,4.64
2019-01-14T08:57:03.716Z,4.59
2019-01-14T08:58:03.741Z,4.57
2019-01-14T08:59:03.770Z,4.64
2019-01-14T09:00:03.798Z,4.68
2019-01-14T09:01:03.828Z,4.61
2019-01-14T09:02:03.854Z,4.57
2019-01-14T09:03:03.886Z,4.49
2019-01-14T09:04:03.911Z,4.61
2019-01-14T09:05:03.939Z,4.53
2019-01-14T09:06:03.966Z,4.54
2019-01-14T09:07:03.995Z,4.56
2019-01-14T09:08:04.023Z,4.56
2019-01-14T09:09:04.053Z,4.57
2019-01-14T09:10:04.079Z,4.51
2019-01-14T09:11:04.106Z,4.59
2019-01-14T09:12:04.138Z,4.56
2019-01-14T09:13:04.165Z,4.65
2019-01-14T09:14:04.193Z,4.59
2019-01-14T09:15:04.220Z,4.61
2019-01-14T09:16:04.250Z,4.69
2019-01-14T09:17:04.287Z,4.67
2019-01-14T09:18:04.306Z,4.77
2019-01-14T09:19:04.335Z,4.74
2019-01-14T09:20:04.363Z,4.77
2019-01-14T09:21:04.390Z,4.69
2019-01-14T09:22:04.417Z,4.74
2019-01-14T09:23:04.451Z,4.72
2019-01-14T09:24:04.474Z,4.74
2019-01-14T09:25:04.506Z,4.84
2019-01-14T09:26:04.531Z,4.77
2019-01-14T09:27:04.560Z,4.83
2019-01-14T09:28:04.590Z,4.87
2019-01-14T09:29:04.618Z,4.99
2019-01-14T09:30:04.643Z,5.04
2019-01-14T09:31:04.674Z,4.99
2019-01-14T09:32:04.702Z,5.17
2019-01-14T09:33:04.730Z,5.15
2019-01-14T09:34:04.757Z,5.26
2019-01-14T09:35:04.786Z,5.26
2019-01-14T09:36:04.815Z,5.30
2019-01-14T09:37:04.844Z,5.32
2019-01-14T09:38:04.871Z,5.27
2019-01-14T09:39:04.900Z,5.30
2019-01-14T09:40:04.939Z,5.32
2019-01-14T09:41:04.958Z,5.47
2019-01-14T09:42:04.984Z,5.40
2019-01-14T09:43:05.013Z,5.56
2019-01-14T09:44:05.041Z,5.55
2019-01-14T09:45:05.071Z,5.62
2019-01-14T09:46:05.099Z,5.74
2019-01-14T09:47:05.131Z,5.85
2019-01-14T09:48:05.159Z,5.88
2019-01-14T09:49:05.187Z,5.93
2019-01-14T09:50:05.218Z,5.93
2019-01-14T09:51:05.241Z,5.99
2019-01-14T09:52:05.329Z,5.98
2019-01-14T09:53:05.302Z,6.02
2019-01-14T09:54:05.331Z,6.05
2019-01-14T09:55:05.852Z,6.30
2019-01-14T09:56:05.389Z,6.28
2019-01-14T09:57:05.416Z,6.40
2019-01-14T09:58:05.446Z,6.33
2019-01-14T09:59:05.474Z,6.51
2019-01-14T10:00:05.506Z,6.61
2019-01-14T10:01:05.534Z,6.71
2019-01-14T10:02:05.562Z,6.87
2019-01-14T10:03:07.244Z,6.87
2019-01-14T10:04:05.623Z,6.99
2019-01-14T10:05:05.654Z,7.15
2019-01-14T10:06:05.683Z,7.24
2019-01-14T10:07:05.713Z,7.44
2019-01-14T10:08:05.744Z,7.51
2019-01-14T10:09:05.777Z,7.63
2019-01-14T10:10:05.806Z,7.76
2019-01-14T10:11:05.893Z,7.81
2019-01-14T10:12:05.871Z,7.92
2019-01-14T10:13:05.902Z,8.02
2019-01-14T10:14:05.934Z,8.06
2019-01-14T10:15:05.968Z,8.24
2019-01-14T10:16:05.997Z,8.29
2019-01-14T10:17:06.030Z,8.40
2019-01-14T10:18:06.062Z,8.40
2019-01-14T10:19:06.097Z,8.47
2019-01-14T10:20:06.129Z,8.64
2019-01-14T10:21:06.164Z,8.82
2019-01-14T10:22:06.195Z,8.86
2019-01-14T10:23:06.231Z,8.86
2019-01-14T10:24:06.262Z,9.04
2019-01-14T10:25:06.301Z,9.20
2019-01-14T10:26:06.330Z,9.42
2019-01-14T10:27:06.364Z,9.80
2019-01-14T10:28:06.398Z,10.57
2019-01-14T10:29:06.433Z,11.20
2019-01-14T10:30:06.465Z,11.44
2019-01-14T10:31:06.504Z,11.66
2019-01-14T10:32:06.534Z,11.77
2019-01-14T10:33:06.568Z,11.97
2019-01-14T10:34:06.601Z,12.34
2019-01-14T10:35:06.636Z,12.87
2019-01-14T10:36:06.670Z,13.39
2019-01-14T10:37:06.706Z,13.99
2019-01-14T10:38:06.740Z,14.48
2019-01-14T10:39:06.773Z,15.15
2019-01-14T10:40:06.807Z,15.77
2019-01-14T10:41:06.844Z,16.48
2019-01-14T10:42:06.877Z,17.07
2019-01-14T10:43:06.916Z,17.53
2019-01-14T10:44:06.949Z,18.23
2019-01-14T10:45:06.984Z,18.84
2019-01-14T10:46:07.018Z,19.68
2019-01-14T10:47:07.057Z,20.02
2019-01-14T10:48:07.092Z,20.17
2019-01-14T10:49:07.149Z,20.48
2019-01-14T10:50:07.164Z,20.60
2019-01-14T10:51:07.205Z,20.75
2019-01-14T10:52:07.236Z,21.16
2019-01-14T10:53:07.274Z,21.11
2019-01-14T10:54:07.311Z,20.85
2019-01-14T10:55:12.318Z,20.82
2019-01-14T10:56:07.386Z,20.73
2019-01-14T10:57:07.425Z,21.03
2019-01-14T10:58:07.458Z,21.37
2019-01-14T10:59:07.497Z,21.71
2019-01-14T11:00:07.537Z,22.23
2019-01-14T11:01:07.571Z,22.97
2019-01-14T11:02:07.609Z,23.56
2019-01-14T11:03:07.648Z,24.05
2019-01-14T11:04:07.688Z,24.18
2019-01-14T11:05:07.724Z,24.37
2019-01-14T11:06:07.760Z,24.68
2019-01-14T11:07:07.800Z,24.70
2019-01-14T11:08:07.840Z,24.66
2019-01-14T11:09:07.878Z,24.27
2019-01-14T11:10:07.917Z,23.93
2019-01-14T11:11:07.954Z,23.04
2019-01-14T11:12:07.996Z,22.81
2019-01-14T11:13:08.031Z,22.36
2019-01-14T11:14:08.069Z,21.79
2019-01-14T11:15:08.111Z,21.19
2019-01-14T11:16:08.146Z,21.16
2019-01-14T11:17:08.186Z,21.38
2019-01-14T11:18:08.222Z,21.21
2019-01-14T11:19:08.261Z,20.58
2019-01-14T11:20:08.303Z,20.13
2019-01-14T11:21:08.337Z,19.53
2019-01-14T11:22:08.375Z,19.58
2019-01-14T11:23:08.411Z,19.86
2019-01-14T11:24:08.451Z,20.05
2019-01-14T11:25:08.490Z,20.37
2019-01-14T11:26:08.525Z,20.66
2019-01-14T11:27:08.567Z,20.42
2019-01-14T11:28:08.601Z,20.13
2019-01-14T11:29:08.640Z,19.55
2019-01-14T11:30:08.677Z,19.05
2019-01-14T11:31:08.717Z,18.83
2019-01-14T11:32:08.753Z,19.12
2019-01-14T11:33:08.791Z,19.89
2019-01-14T11:34:08.825Z,20.76
2019-01-14T11:35:08.864Z,21.55
2019-01-14T11:36:08.900Z,21.99
2019-01-14T11:37:08.942Z,21.70
2019-01-14T11:38:08.975Z,21.08
2019-01-14T11:39:09.011Z,20.30
2019-01-14T11:40:09.053Z,19.45
2019-01-14T11:41:09.087Z,18.49
2019-01-14T11:42:09.125Z,17.70
2019-01-14T11:43:09.160Z,17.14
2019-01-14T11:44:09.199Z,16.37
2019-01-14T11:45:09.233Z,15.53
2019-01-14T11:46:09.270Z,14.90
2019-01-14T11:47:09.307Z,14.30
2019-01-14T11:48:09.345Z,13.73
2019-01-14T11:49:09.379Z,13.19
2019-01-14T11:50:09.415Z,12.74
2019-01-14T11:51:09.452Z,12.55
2019-01-14T11:52:09.485Z,11.96
2019-01-14T11:53:09.520Z,11.54
2019-01-14T11:54:09.556Z,11.19
2019-01-14T11:55:09.590Z,10.68
2019-01-14T11:56:09.630Z,10.44
2019-01-14T11:57:09.659Z,10.09
2019-01-14T11:58:09.701Z,9.80
2019-01-14T11:59:09.728Z,9.41
2019-01-14T12:00:09.761Z,9.10
2019-01-14T12:01:09.797Z,8.80
2019-01-14T12:02:09.829Z,8.45
2019-01-14T12:03:09.863Z,8.25
2019-01-14T12:04:09.895Z,8.10
2019-01-14T12:05:09.933Z,8.07
2019-01-14T12:06:09.963Z,7.92
2019-01-14T12:07:09.996Z,7.95
2019-01-14T12:08:10.032Z,7.82
2019-01-14T12:09:12.331Z,7.66
2019-01-14T12:10:10.093Z,7.63
2019-01-14T12:11:10.127Z,7.57
2019-01-14T12:12:10.157Z,7.44
2019-01-14T12:13:10.193Z,7.33
2019-01-14T12:14:10.223Z,7.18
2019-01-14T12:15:10.254Z,7.30
2019-01-14T12:16:10.287Z,7.26
2019-01-14T12:17:10.319Z,7.18
2019-01-14T12:18:10.350Z,7.08
2019-01-14T12:19:10.380Z,7.15
2019-01-14T12:20:10.414Z,7.15
2019-01-14T12:21:10.445Z,7.14
2019-01-14T12:22:10.476Z,7.11
2019-01-14T12:23:10.507Z,7.21
2019-01-14T12:24:10.537Z,7.05
2019-01-14T12:25:10.571Z,7.05
2019-01-14T12:26:10.602Z,6.97
2019-01-14T12:27:10.631Z,6.90
2019-01-14T12:28:10.669Z,6.86
2019-01-14T12:29:10.694Z,6.73
2019-01-14T12:30:10.724Z,6.86
2019-01-14T12:31:10.756Z,6.76
2019-01-14T12:32:10.788Z,6.78
2019-01-14T12:33:10.820Z,6.72
2019-01-14T12:34:10.852Z,6.72
2019-01-14T12:35:10.888Z,6.71
2019-01-14T12:36:10.910Z,6.68
2019-01-14T12:37:10.939Z,6.58
2019-01-14T12:38:10.969Z,6.58
2019-01-14T12:39:11.003Z,6.46
2019-01-14T12:40:11.030Z,6.42
2019-01-14T12:41:11.063Z,6.40
2019-01-14T12:42:11.091Z,6.35
2019-01-14T12:43:11.122Z,6.42
2019-01-14T12:44:11.154Z,6.32
2019-01-14T12:45:11.183Z,6.33
2019-01-14T12:46:11.215Z,6.36
2019-01-14T12:47:11.241Z,6.27
2019-01-14T12:48:11.272Z,6.24
2019-01-14T12:49:11.303Z,6.25
2019-01-14T12:50:11.331Z,6.20
2019-01-14T12:51:11.363Z,6.19
2019-01-14T12:52:11.409Z,6.01
2019-01-14T12:53:11.423Z,6.11
2019-01-14T12:54:11.452Z,5.98
2019-01-14T12:55:11.483Z,5.90
2019-01-14T12:56:11.511Z,5.88
2019-01-14T12:57:11.544Z,5.88
2019-01-14T12:58:11.571Z,5.90
2019-01-14T12:59:11.603Z,5.81
2019-01-14T13:00:11.631Z,5.81
2019-01-14T13:01:11.663Z,5.81
2019-01-14T13:02:11.688Z,5.88
2019-01-14T13:03:11.719Z,5.83
2019-01-14T13:04:11.770Z,5.87
2019-01-14T13:05:11.780Z,6.13
2019-01-14T13:06:11.808Z,6.64
2019-01-14T13:07:11.910Z,7.15
2019-01-14T13:08:11.867Z,8.00
2019-01-14T13:09:12.101Z,8.94
2019-01-14T13:10:12.061Z,9.92
2019-01-14T13:11:11.956Z,10.58
2019-01-14T13:12:11.987Z,11.56
2019-01-14T13:13:12.016Z,12.41
2019-01-14T13:14:12.046Z,13.36
2019-01-14T13:15:12.150Z,14.48
2019-01-14T13:16:12.110Z,15.33